Watauga, Texas
Current Conditions -  °F | °C
As of 3:53 PM on Saturday 25 Oct 2014 (Local Time) from KFTW Reporting Station
Clear Clear  
Wind Chill: 31°   Ceiling: Unl
Heat Index: 31°   Visibility: 10mi
Dew Point: 15°   Wind: 8mph
Humidity: 37%   Direction: 170°S
Pressure: 30.06"   Gusts: NA
Location:  32.8687°N, 97.2516°W
Report Text: KFTW 252053Z 17007KT 10SM CLR 31/15 A3006 RMK AO2 SLP170 T03110150 56018
Loading
Personal Weather Stations






























Interactive Weather Map
Tropical Storm Tracking
New forecast layout! Learn more

10-Day Weather Forecast

Advertisements
Track Severe Weather on mobile